sensor_id;sensor_type;location;lat;lon;timestamp;P1;durP1;ratioP1;P2;durP2;ratioP2
9720;SDS011;4899;42.644;23.366;2023-05-13T00:00:45;2.27;;;2.07;;
9720;SDS011;4899;42.644;23.366;2023-05-13T00:03:11;2.60;;;1.90;;
9720;SDS011;4899;42.644;23.366;2023-05-13T00:05:36;2.23;;;1.80;;
9720;SDS011;4899;42.644;23.366;2023-05-13T00:08:02;4.27;;;2.30;;
9720;SDS011;4899;42.644;23.366;2023-05-13T00:10:31;5.10;;;2.27;;
9720;SDS011;4899;42.644;23.366;2023-05-13T00:12:59;3.03;;;1.87;;
9720;SDS011;4899;42.644;23.366;2023-05-13T00:15:26;3.60;;;1.87;;
9720;SDS011;4899;42.644;23.366;2023-05-13T00:17:52;2.23;;;1.70;;
9720;SDS011;4899;42.644;23.366;2023-05-13T00:20:18;2.53;;;2.10;;
9720;SDS011;4899;42.644;23.366;2023-05-13T00:22:43;1.70;;;1.60;;
9720;SDS011;4899;42.644;23.366;2023-05-13T00:25:09;3.00;;;1.87;;
9720;SDS011;4899;42.644;23.366;2023-05-13T00:27:34;2.90;;;1.90;;
9720;SDS011;4899;42.644;23.366;2023-05-13T00:30:00;3.90;;;1.90;;
9720;SDS011;4899;42.644;23.366;2023-05-13T00:32:26;2.77;;;2.03;;
9720;SDS011;4899;42.644;23.366;2023-05-13T00:34:51;2.77;;;1.90;;
9720;SDS011;4899;42.644;23.366;2023-05-13T00:37:17;2.60;;;2.40;;
9720;SDS011;4899;42.644;23.366;2023-05-13T00:39:42;3.80;;;2.50;;
9720;SDS011;4899;42.644;23.366;2023-05-13T00:42:08;4.13;;;1.90;;
9720;SDS011;4899;42.644;23.366;2023-05-13T00:44:36;2.23;;;2.03;;
9720;SDS011;4899;42.644;23.366;2023-05-13T00:47:02;2.40;;;2.10;;
9720;SDS011;4899;42.644;23.366;2023-05-13T00:49:29;3.43;;;2.30;;
9720;SDS011;4899;42.644;23.366;2023-05-13T00:51:56;3.30;;;1.83;;
9720;SDS011;4899;42.644;23.366;2023-05-13T00:54:21;2.50;;;2.00;;
9720;SDS011;4899;42.644;23.366;2023-05-13T00:56:47;2.73;;;2.53;;
9720;SDS011;4899;42.644;23.366;2023-05-13T00:59:12;3.50;;;3.13;;
9720;SDS011;4899;42.644;23.366;2023-05-13T01:01:49;4.37;;;3.97;;
9720;SDS011;4899;42.644;23.366;2023-05-13T01:07:21;4.50;;;4.10;;
9720;SDS011;4899;42.644;23.366;2023-05-13T01:10:04;5.63;;;3.30;;
9720;SDS011;4899;42.644;23.366;2023-05-13T01:12:34;2.53;;;2.17;;
9720;SDS011;4899;42.644;23.366;2023-05-13T01:17:38;2.33;;;2.10;;
9720;SDS011;4899;42.644;23.366;2023-05-13T01:20:08;2.77;;;2.20;;
9720;SDS011;4899;42.644;23.366;2023-05-13T01:22:34;7.40;;;3.03;;
9720;SDS011;4899;42.644;23.366;2023-05-13T01:25:00;4.47;;;2.67;;
9720;SDS011;4899;42.644;23.366;2023-05-13T01:27:25;2.37;;;1.90;;
9720;SDS011;4899;42.644;23.366;2023-05-13T01:29:51;2.17;;;1.97;;
9720;SDS011;4899;42.644;23.366;2023-05-13T01:32:18;2.60;;;1.90;;
9720;SDS011;4899;42.644;23.366;2023-05-13T01:34:45;2.43;;;1.70;;
9720;SDS011;4899;42.644;23.366;2023-05-13T01:37:11;1.70;;;1.60;;
9720;SDS011;4899;42.644;23.366;2023-05-13T01:39:36;1.60;;;1.50;;
9720;SDS011;4899;42.644;23.366;2023-05-13T01:42:02;2.87;;;1.63;;
9720;SDS011;4899;42.644;23.366;2023-05-13T01:44:28;2.83;;;1.90;;
9720;SDS011;4899;42.644;23.366;2023-05-13T01:46:53;1.63;;;1.53;;
9720;SDS011;4899;42.644;23.366;2023-05-13T01:49:19;2.10;;;1.90;;
9720;SDS011;4899;42.644;23.366;2023-05-13T01:51:44;5.40;;;1.97;;
9720;SDS011;4899;42.644;23.366;2023-05-13T01:54:10;2.30;;;2.10;;
9720;SDS011;4899;42.644;23.366;2023-05-13T01:56:35;2.30;;;2.20;;
9720;SDS011;4899;42.644;23.366;2023-05-13T01:59:01;3.83;;;2.50;;
9720;SDS011;4899;42.644;23.366;2023-05-13T02:01:26;2.87;;;2.30;;
9720;SDS011;4899;42.644;23.366;2023-05-13T02:03:52;3.17;;;2.97;;
9720;SDS011;4899;42.644;23.366;2023-05-13T02:06:17;4.20;;;3.70;;
9720;SDS011;4899;42.644;23.366;2023-05-13T02:08:43;6.60;;;4.47;;
9720;SDS011;4899;42.644;23.366;2023-05-13T02:11:09;4.30;;;3.90;;
9720;SDS011;4899;42.644;23.366;2023-05-13T02:13:34;3.83;;;3.50;;
9720;SDS011;4899;42.644;23.366;2023-05-13T02:16:00;3.10;;;2.80;;
9720;SDS011;4899;42.644;23.366;2023-05-13T02:18:27;3.03;;;2.17;;
9720;SDS011;4899;42.644;23.366;2023-05-13T02:20:52;4.80;;;2.80;;
9720;SDS011;4899;42.644;23.366;2023-05-13T02:23:18;4.07;;;2.50;;
9720;SDS011;4899;42.644;23.366;2023-05-13T02:25:43;2.53;;;2.33;;
9720;SDS011;4899;42.644;23.366;2023-05-13T02:28:09;2.53;;;2.23;;
9720;SDS011;4899;42.644;23.366;2023-05-13T02:30:34;2.83;;;2.30;;
9720;SDS011;4899;42.644;23.366;2023-05-13T02:33:00;2.43;;;2.23;;
9720;SDS011;4899;42.644;23.366;2023-05-13T02:35:26;3.23;;;2.43;;
9720;SDS011;4899;42.644;23.366;2023-05-13T02:37:54;2.27;;;2.17;;
9720;SDS011;4899;42.644;23.366;2023-05-13T02:40:20;2.60;;;2.40;;
9720;SDS011;4899;42.644;23.366;2023-05-13T02:42:46;2.40;;;2.20;;
9720;SDS011;4899;42.644;23.366;2023-05-13T02:45:11;4.47;;;2.70;;
9720;SDS011;4899;42.644;23.366;2023-05-13T02:47:37;2.80;;;2.60;;
9720;SDS011;4899;42.644;23.366;2023-05-13T02:50:04;3.83;;;2.90;;
9720;SDS011;4899;42.644;23.366;2023-05-13T02:52:31;2.50;;;2.30;;
9720;SDS011;4899;42.644;23.366;2023-05-13T02:54:59;4.90;;;2.80;;
9720;SDS011;4899;42.644;23.366;2023-05-13T02:57:25;3.07;;;2.77;;
9720;SDS011;4899;42.644;23.366;2023-05-13T02:59:51;3.90;;;2.93;;
9720;SDS011;4899;42.644;23.366;2023-05-13T03:02:17;4.63;;;3.07;;
9720;SDS011;4899;42.644;23.366;2023-05-13T03:04:42;4.60;;;3.07;;
9720;SDS011;4899;42.644;23.366;2023-05-13T03:07:07;3.87;;;2.90;;
9720;SDS011;4899;42.644;23.366;2023-05-13T03:09:34;3.23;;;3.00;;
9720;SDS011;4899;42.644;23.366;2023-05-13T03:12:03;3.47;;;3.17;;
9720;SDS011;4899;42.644;23.366;2023-05-13T03:14:30;8.53;;;3.43;;
9720;SDS011;4899;42.644;23.366;2023-05-13T03:16:55;3.07;;;2.80;;
9720;SDS011;4899;42.644;23.366;2023-05-13T03:19:21;3.23;;;3.03;;
9720;SDS011;4899;42.644;23.366;2023-05-13T03:21:46;4.37;;;3.57;;
9720;SDS011;4899;42.644;23.366;2023-05-13T03:24:12;3.83;;;3.43;;
9720;SDS011;4899;42.644;23.366;2023-05-13T03:26:37;3.50;;;3.20;;
9720;SDS011;4899;42.644;23.366;2023-05-13T03:29:02;4.23;;;3.17;;
9720;SDS011;4899;42.644;23.366;2023-05-13T03:31:28;4.03;;;3.63;;
9720;SDS011;4899;42.644;23.366;2023-05-13T03:33:53;3.77;;;3.43;;
9720;SDS011;4899;42.644;23.366;2023-05-13T03:36:19;4.43;;;4.00;;
9720;SDS011;4899;42.644;23.366;2023-05-13T03:38:45;3.90;;;3.60;;
9720;SDS011;4899;42.644;23.366;2023-05-13T03:41:10;4.37;;;3.97;;
9720;SDS011;4899;42.644;23.366;2023-05-13T03:43:36;6.93;;;3.97;;
9720;SDS011;4899;42.644;23.366;2023-05-13T03:46:01;3.97;;;3.67;;
9720;SDS011;4899;42.644;23.366;2023-05-13T03:48:27;5.37;;;3.77;;
9720;SDS011;4899;42.644;23.366;2023-05-13T03:51:01;5.17;;;4.03;;
9720;SDS011;4899;42.644;23.366;2023-05-13T03:53:26;6.13;;;4.00;;
9720;SDS011;4899;42.644;23.366;2023-05-13T03:55:52;4.97;;;4.27;;
9720;SDS011;4899;42.644;23.366;2023-05-13T03:58:17;4.70;;;4.30;;
9720;SDS011;4899;42.644;23.366;2023-05-13T04:00:43;4.33;;;3.70;;
9720;SDS011;4899;42.644;23.366;2023-05-13T04:03:12;4.07;;;3.67;;
9720;SDS011;4899;42.644;23.366;2023-05-13T04:05:44;5.73;;;4.53;;
9720;SDS011;4899;42.644;23.366;2023-05-13T04:08:10;4.00;;;3.63;;
9720;SDS011;4899;42.644;23.366;2023-05-13T04:10:36;3.90;;;3.60;;
9720;SDS011;4899;42.644;23.366;2023-05-13T04:13:01;6.50;;;3.67;;
9720;SDS011;4899;42.644;23.366;2023-05-13T04:15:27;3.67;;;3.27;;
9720;SDS011;4899;42.644;23.366;2023-05-13T04:17:52;3.63;;;3.27;;
9720;SDS011;4899;42.644;23.366;2023-05-13T04:20:18;4.83;;;3.57;;
9720;SDS011;4899;42.644;23.366;2023-05-13T04:22:44;4.77;;;3.97;;
9720;SDS011;4899;42.644;23.366;2023-05-13T04:25:09;7.50;;;3.93;;
9720;SDS011;4899;42.644;23.366;2023-05-13T04:27:35;5.03;;;4.00;;
9720;SDS011;4899;42.644;23.366;2023-05-13T04:30:00;4.93;;;4.37;;
9720;SDS011;4899;42.644;23.366;2023-05-13T04:32:26;5.50;;;4.43;;
9720;SDS011;4899;42.644;23.366;2023-05-13T04:34:52;5.90;;;5.30;;
9720;SDS011;4899;42.644;23.366;2023-05-13T04:37:17;6.07;;;5.30;;
9720;SDS011;4899;42.644;23.366;2023-05-13T04:39:46;6.60;;;5.90;;
9720;SDS011;4899;42.644;23.366;2023-05-13T04:42:13;7.43;;;6.57;;
9720;SDS011;4899;42.644;23.366;2023-05-13T04:44:38;6.53;;;5.67;;
9720;SDS011;4899;42.644;23.366;2023-05-13T04:47:04;6.50;;;6.00;;
9720;SDS011;4899;42.644;23.366;2023-05-13T04:49:30;7.13;;;5.73;;
9720;SDS011;4899;42.644;23.366;2023-05-13T04:51:55;5.90;;;5.40;;
9720;SDS011;4899;42.644;23.366;2023-05-13T04:54:21;5.53;;;5.03;;
9720;SDS011;4899;42.644;23.366;2023-05-13T04:56:47;6.93;;;5.90;;
9720;SDS011;4899;42.644;23.366;2023-05-13T04:59:12;7.43;;;5.83;;
9720;SDS011;4899;42.644;23.366;2023-05-13T05:01:38;6.80;;;6.10;;
9720;SDS011;4899;42.644;23.366;2023-05-13T05:04:04;6.90;;;6.30;;
9720;SDS011;4899;42.644;23.366;2023-05-13T05:06:29;6.77;;;6.13;;
9720;SDS011;4899;42.644;23.366;2023-05-13T05:08:56;9.80;;;6.77;;
9720;SDS011;4899;42.644;23.366;2023-05-13T05:11:22;6.80;;;6.10;;
9720;SDS011;4899;42.644;23.366;2023-05-13T05:13:47;6.70;;;6.00;;
9720;SDS011;4899;42.644;23.366;2023-05-13T05:16:13;5.67;;;5.13;;
9720;SDS011;4899;42.644;23.366;2023-05-13T05:18:38;7.07;;;5.67;;
9720;SDS011;4899;42.644;23.366;2023-05-13T05:21:07;6.67;;;5.20;;
9720;SDS011;4899;42.644;23.366;2023-05-13T05:23:33;6.53;;;5.20;;
9720;SDS011;4899;42.644;23.366;2023-05-13T05:25:58;6.10;;;5.30;;
9720;SDS011;4899;42.644;23.366;2023-05-13T05:28:24;8.33;;;5.30;;
9720;SDS011;4899;42.644;23.366;2023-05-13T05:30:50;6.20;;;5.50;;
9720;SDS011;4899;42.644;23.366;2023-05-13T05:33:16;8.80;;;5.63;;
9720;SDS011;4899;42.644;23.366;2023-05-13T05:35:42;5.83;;;4.90;;
9720;SDS011;4899;42.644;23.366;2023-05-13T05:38:07;5.60;;;4.97;;
9720;SDS011;4899;42.644;23.366;2023-05-13T05:40:37;5.73;;;5.23;;
9720;SDS011;4899;42.644;23.366;2023-05-13T05:43:04;8.63;;;5.13;;
9720;SDS011;4899;42.644;23.366;2023-05-13T05:45:30;8.70;;;5.80;;
9720;SDS011;4899;42.644;23.366;2023-05-13T05:47:55;5.83;;;5.23;;
9720;SDS011;4899;42.644;23.366;2023-05-13T05:50:21;6.50;;;5.27;;
9720;SDS011;4899;42.644;23.366;2023-05-13T05:52:47;5.30;;;4.80;;
9720;SDS011;4899;42.644;23.366;2023-05-13T05:55:13;5.40;;;4.83;;
9720;SDS011;4899;42.644;23.366;2023-05-13T05:57:39;7.20;;;5.33;;
9720;SDS011;4899;42.644;23.366;2023-05-13T06:00:05;5.67;;;5.10;;
9720;SDS011;4899;42.644;23.366;2023-05-13T06:02:31;5.37;;;4.70;;
9720;SDS011;4899;42.644;23.366;2023-05-13T06:04:56;5.30;;;4.80;;
9720;SDS011;4899;42.644;23.366;2023-05-13T06:07:22;4.93;;;4.53;;
9720;SDS011;4899;42.644;23.366;2023-05-13T06:09:47;5.43;;;4.83;;
9720;SDS011;4899;42.644;23.366;2023-05-13T06:12:12;5.57;;;4.90;;
9720;SDS011;4899;42.644;23.366;2023-05-13T06:14:38;6.43;;;4.90;;
9720;SDS011;4899;42.644;23.366;2023-05-13T06:17:03;5.67;;;5.10;;
9720;SDS011;4899;42.644;23.366;2023-05-13T06:19:29;5.50;;;5.00;;
9720;SDS011;4899;42.644;23.366;2023-05-13T06:21:54;5.97;;;4.93;;
9720;SDS011;4899;42.644;23.366;2023-05-13T06:24:20;7.60;;;5.90;;
9720;SDS011;4899;42.644;23.366;2023-05-13T06:26:46;5.63;;;5.13;;
9720;SDS011;4899;42.644;23.366;2023-05-13T06:29:11;6.27;;;5.77;;
9720;SDS011;4899;42.644;23.366;2023-05-13T06:31:37;5.53;;;5.00;;
9720;SDS011;4899;42.644;23.366;2023-05-13T06:34:02;6.47;;;5.80;;
9720;SDS011;4899;42.644;23.366;2023-05-13T06:36:28;6.43;;;5.83;;
9720;SDS011;4899;42.644;23.366;2023-05-13T06:38:53;6.07;;;5.50;;
9720;SDS011;4899;42.644;23.366;2023-05-13T06:41:19;6.87;;;5.67;;
9720;SDS011;4899;42.644;23.366;2023-05-13T06:43:44;6.33;;;5.13;;
9720;SDS011;4899;42.644;23.366;2023-05-13T06:46:10;5.77;;;5.03;;
9720;SDS011;4899;42.644;23.366;2023-05-13T06:48:36;6.97;;;5.37;;
9720;SDS011;4899;42.644;23.366;2023-05-13T06:51:02;6.10;;;5.20;;
9720;SDS011;4899;42.644;23.366;2023-05-13T06:53:29;8.40;;;5.10;;
9720;SDS011;4899;42.644;23.366;2023-05-13T06:55:55;5.70;;;5.20;;
9720;SDS011;4899;42.644;23.366;2023-05-13T06:58:21;6.50;;;5.73;;
9720;SDS011;4899;42.644;23.366;2023-05-13T07:00:46;8.87;;;6.67;;
9720;SDS011;4899;42.644;23.366;2023-05-13T07:03:12;10.73;;;6.00;;
9720;SDS011;4899;42.644;23.366;2023-05-13T07:05:37;8.43;;;6.70;;
9720;SDS011;4899;42.644;23.366;2023-05-13T07:08:03;9.43;;;5.77;;
9720;SDS011;4899;42.644;23.366;2023-05-13T07:10:32;6.37;;;5.70;;
9720;SDS011;4899;42.644;23.366;2023-05-13T07:12:59;7.33;;;5.47;;
9720;SDS011;4899;42.644;23.366;2023-05-13T07:15:25;5.97;;;5.37;;
9720;SDS011;4899;42.644;23.366;2023-05-13T07:17:50;6.67;;;3.80;;
9720;SDS011;4899;42.644;23.366;2023-05-13T07:20:16;5.73;;;3.67;;
9720;SDS011;4899;42.644;23.366;2023-05-13T07:22:45;3.70;;;3.33;;
9720;SDS011;4899;42.644;23.366;2023-05-13T07:25:12;6.13;;;3.70;;
9720;SDS011;4899;42.644;23.366;2023-05-13T07:27:37;7.80;;;4.57;;
9720;SDS011;4899;42.644;23.366;2023-05-13T07:30:02;10.57;;;6.17;;
9720;SDS011;4899;42.644;23.366;2023-05-13T07:32:28;4.57;;;4.10;;
9720;SDS011;4899;42.644;23.366;2023-05-13T07:34:54;5.10;;;4.63;;
9720;SDS011;4899;42.644;23.366;2023-05-13T07:37:19;4.37;;;3.97;;
9720;SDS011;4899;42.644;23.366;2023-05-13T07:39:45;3.77;;;3.43;;
9720;SDS011;4899;42.644;23.366;2023-05-13T07:42:11;5.73;;;3.90;;
9720;SDS011;4899;42.644;23.366;2023-05-13T07:44:36;4.57;;;4.03;;
9720;SDS011;4899;42.644;23.366;2023-05-13T07:47:02;4.13;;;3.77;;
9720;SDS011;4899;42.644;23.366;2023-05-13T07:49:27;4.63;;;4.23;;
9720;SDS011;4899;42.644;23.366;2023-05-13T07:51:52;4.50;;;4.10;;
9720;SDS011;4899;42.644;23.366;2023-05-13T07:54:18;4.70;;;3.67;;
9720;SDS011;4899;42.644;23.366;2023-05-13T07:56:43;5.93;;;4.47;;
9720;SDS011;4899;42.644;23.366;2023-05-13T07:59:10;6.03;;;3.73;;
9720;SDS011;4899;42.644;23.366;2023-05-13T08:01:36;4.40;;;4.00;;
9720;SDS011;4899;42.644;23.366;2023-05-13T08:04:01;4.77;;;4.33;;
9720;SDS011;4899;42.644;23.366;2023-05-13T08:06:26;5.40;;;4.37;;
9720;SDS011;4899;42.644;23.366;2023-05-13T08:08:52;5.63;;;4.13;;
9720;SDS011;4899;42.644;23.366;2023-05-13T08:11:17;8.27;;;4.43;;
9720;SDS011;4899;42.644;23.366;2023-05-13T08:13:43;6.17;;;4.70;;
9720;SDS011;4899;42.644;23.366;2023-05-13T08:16:08;4.80;;;4.40;;
9720;SDS011;4899;42.644;23.366;2023-05-13T08:18:33;5.97;;;4.60;;
9720;SDS011;4899;42.644;23.366;2023-05-13T08:20:59;5.90;;;4.77;;
9720;SDS011;4899;42.644;23.366;2023-05-13T08:23:24;5.73;;;5.13;;
9720;SDS011;4899;42.644;23.366;2023-05-13T08:25:50;5.10;;;4.60;;
9720;SDS011;4899;42.644;23.366;2023-05-13T08:28:15;7.37;;;5.13;;
9720;SDS011;4899;42.644;23.366;2023-05-13T08:30:41;5.07;;;4.60;;
9720;SDS011;4899;42.644;23.366;2023-05-13T08:33:08;5.13;;;4.40;;
9720;SDS011;4899;42.644;23.366;2023-05-13T08:35:35;5.33;;;4.60;;
9720;SDS011;4899;42.644;23.366;2023-05-13T08:38:00;4.80;;;4.30;;
9720;SDS011;4899;42.644;23.366;2023-05-13T08:40:29;5.37;;;4.60;;
9720;SDS011;4899;42.644;23.366;2023-05-13T08:42:55;5.00;;;4.50;;
9720;SDS011;4899;42.644;23.366;2023-05-13T08:45:23;5.77;;;4.73;;
9720;SDS011;4899;42.644;23.366;2023-05-13T08:47:59;6.17;;;5.00;;
9720;SDS011;4899;42.644;23.366;2023-05-13T08:50:29;9.00;;;4.93;;
9720;SDS011;4899;42.644;23.366;2023-05-13T08:52:57;5.57;;;5.17;;
9720;SDS011;4899;42.644;23.366;2023-05-13T08:55:24;5.63;;;5.07;;
9720;SDS011;4899;42.644;23.366;2023-05-13T08:57:50;7.57;;;5.73;;
9720;SDS011;4899;42.644;23.366;2023-05-13T09:00:16;6.43;;;5.80;;
9720;SDS011;4899;42.644;23.366;2023-05-13T09:02:41;7.53;;;5.53;;
9720;SDS011;4899;42.644;23.366;2023-05-13T09:05:07;6.00;;;5.27;;
9720;SDS011;4899;42.644;23.366;2023-05-13T09:07:37;6.20;;;5.00;;
9720;SDS011;4899;42.644;23.366;2023-05-13T09:10:04;7.43;;;5.67;;
9720;SDS011;4899;42.644;23.366;2023-05-13T09:13:03;6.70;;;5.30;;
9720;SDS011;4899;42.644;23.366;2023-05-13T09:15:23;7.23;;;5.43;;
9720;SDS011;4899;42.644;23.366;2023-05-13T09:17:50;6.57;;;5.57;;
9720;SDS011;4899;42.644;23.366;2023-05-13T09:20:19;6.53;;;5.83;;
9720;SDS011;4899;42.644;23.366;2023-05-13T09:22:46;5.77;;;5.23;;
9720;SDS011;4899;42.644;23.366;2023-05-13T09:25:12;6.10;;;5.50;;
9720;SDS011;4899;42.644;23.366;2023-05-13T09:27:41;6.37;;;4.77;;
9720;SDS011;4899;42.644;23.366;2023-05-13T09:30:09;5.77;;;5.07;;
9720;SDS011;4899;42.644;23.366;2023-05-13T09:32:35;7.10;;;5.60;;
9720;SDS011;4899;42.644;23.366;2023-05-13T09:35:07;6.60;;;5.80;;
9720;SDS011;4899;42.644;23.366;2023-05-13T09:37:35;6.20;;;5.60;;
9720;SDS011;4899;42.644;23.366;2023-05-13T09:40:01;8.07;;;5.87;;
9720;SDS011;4899;42.644;23.366;2023-05-13T09:42:27;6.97;;;5.00;;
9720;SDS011;4899;42.644;23.366;2023-05-13T09:44:53;6.67;;;5.80;;
9720;SDS011;4899;42.644;23.366;2023-05-13T09:47:19;5.70;;;5.17;;
9720;SDS011;4899;42.644;23.366;2023-05-13T09:49:53;5.60;;;5.10;;
9720;SDS011;4899;42.644;23.366;2023-05-13T09:52:20;7.10;;;6.30;;
9720;SDS011;4899;42.644;23.366;2023-05-13T09:54:46;6.33;;;5.73;;
9720;SDS011;4899;42.644;23.366;2023-05-13T09:57:12;6.77;;;5.63;;
9720;SDS011;4899;42.644;23.366;2023-05-13T09:59:38;6.13;;;5.57;;
9720;SDS011;4899;42.644;23.366;2023-05-13T10:02:05;5.23;;;4.73;;
9720;SDS011;4899;42.644;23.366;2023-05-13T10:04:31;6.30;;;5.63;;
9720;SDS011;4899;42.644;23.366;2023-05-13T10:06:57;5.80;;;5.20;;
9720;SDS011;4899;42.644;23.366;2023-05-13T10:09:25;5.80;;;5.30;;
9720;SDS011;4899;42.644;23.366;2023-05-13T10:11:52;6.27;;;5.67;;
9720;SDS011;4899;42.644;23.366;2023-05-13T10:14:20;9.33;;;7.10;;
9720;SDS011;4899;42.644;23.366;2023-05-13T10:16:46;6.27;;;5.57;;
9720;SDS011;4899;42.644;23.366;2023-05-13T10:19:13;7.10;;;5.40;;
9720;SDS011;4899;42.644;23.366;2023-05-13T10:21:39;6.43;;;5.00;;
9720;SDS011;4899;42.644;23.366;2023-05-13T10:24:06;5.53;;;5.03;;
9720;SDS011;4899;42.644;23.366;2023-05-13T10:26:31;5.57;;;4.97;;
9720;SDS011;4899;42.644;23.366;2023-05-13T10:28:58;5.70;;;5.20;;
9720;SDS011;4899;42.644;23.366;2023-05-13T10:31:24;6.93;;;5.73;;
9720;SDS011;4899;42.644;23.366;2023-05-13T10:33:51;5.73;;;5.20;;
9720;SDS011;4899;42.644;23.366;2023-05-13T10:36:33;5.40;;;4.90;;
9720;SDS011;4899;42.644;23.366;2023-05-13T10:44:34;5.93;;;5.40;;
9720;SDS011;4899;42.644;23.366;2023-05-13T10:47:00;5.80;;;5.30;;
9720;SDS011;4899;42.644;23.366;2023-05-13T10:49:33;5.63;;;4.87;;
9720;SDS011;4899;42.644;23.366;2023-05-13T10:52:03;7.13;;;5.07;;
9720;SDS011;4899;42.644;23.366;2023-05-13T10:54:36;6.73;;;5.73;;
9720;SDS011;4899;42.644;23.366;2023-05-13T10:57:04;7.13;;;5.87;;
9720;SDS011;4899;42.644;23.366;2023-05-13T10:59:31;5.93;;;5.23;;
9720;SDS011;4899;42.644;23.366;2023-05-13T11:01:59;6.10;;;5.30;;
9720;SDS011;4899;42.644;23.366;2023-05-13T11:04:26;6.13;;;5.57;;
9720;SDS011;4899;42.644;23.366;2023-05-13T11:06:51;6.70;;;5.17;;
9720;SDS011;4899;42.644;23.366;2023-05-13T11:11:53;6.40;;;5.70;;
9720;SDS011;4899;42.644;23.366;2023-05-13T11:14:20;7.87;;;6.20;;
9720;SDS011;4899;42.644;23.366;2023-05-13T11:19:44;5.50;;;5.10;;
9720;SDS011;4899;42.644;23.366;2023-05-13T11:22:13;5.67;;;5.17;;
9720;SDS011;4899;42.644;23.366;2023-05-13T11:24:40;5.60;;;5.10;;
9720;SDS011;4899;42.644;23.366;2023-05-13T11:27:12;5.93;;;5.43;;
9720;SDS011;4899;42.644;23.366;2023-05-13T11:29:48;5.87;;;5.00;;
9720;SDS011;4899;42.644;23.366;2023-05-13T11:35:25;5.13;;;4.73;;
9720;SDS011;4899;42.644;23.366;2023-05-13T11:37:56;5.37;;;4.87;;
9720;SDS011;4899;42.644;23.366;2023-05-13T11:40:23;4.55;;;4.15;;
9720;SDS011;4899;42.644;23.366;2023-05-13T11:42:50;6.20;;;4.60;;
9720;SDS011;4899;42.644;23.366;2023-05-13T11:45:16;5.05;;;4.65;;
9720;SDS011;4899;42.644;23.366;2023-05-13T11:47:42;4.43;;;4.03;;
9720;SDS011;4899;42.644;23.366;2023-05-13T11:52:43;4.78;;;4.38;;
9720;SDS011;4899;42.644;23.366;2023-05-13T11:55:09;3.85;;;3.50;;
9720;SDS011;4899;42.644;23.366;2023-05-13T11:57:35;4.95;;;4.60;;
9720;SDS011;4899;42.644;23.366;2023-05-13T12:00:01;7.03;;;4.70;;
9720;SDS011;4899;42.644;23.366;2023-05-13T12:02:37;4.63;;;4.22;;
9720;SDS011;4899;42.644;23.366;2023-05-13T12:05:10;4.72;;;4.15;;
9720;SDS011;4899;42.644;23.366;2023-05-13T12:07:36;5.78;;;4.03;;
9720;SDS011;4899;42.644;23.366;2023-05-13T12:10:04;4.20;;;3.90;;
9720;SDS011;4899;42.644;23.366;2023-05-13T12:12:32;4.40;;;4.10;;
9720;SDS011;4899;42.644;23.366;2023-05-13T12:15:01;5.90;;;3.80;;
9720;SDS011;4899;42.644;23.366;2023-05-13T12:17:27;4.18;;;3.83;;
9720;SDS011;4899;42.644;23.366;2023-05-13T12:28:13;5.70;;;3.95;;
9720;SDS011;4899;42.644;23.366;2023-05-13T12:30:53;4.35;;;3.60;;
9720;SDS011;4899;42.644;23.366;2023-05-13T12:33:33;6.90;;;3.97;;
9720;SDS011;4899;42.644;23.366;2023-05-13T12:38:55;5.32;;;4.30;;
9720;SDS011;4899;42.644;23.366;2023-05-13T12:44:02;4.85;;;4.45;;
9720;SDS011;4899;42.644;23.366;2023-05-13T12:46:35;4.80;;;4.35;;
9720;SDS011;4899;42.644;23.366;2023-05-13T12:49:02;4.95;;;4.45;;
9720;SDS011;4899;42.644;23.366;2023-05-13T12:51:29;4.47;;;4.18;;
9720;SDS011;4899;42.644;23.366;2023-05-13T12:53:55;4.38;;;3.90;;
9720;SDS011;4899;42.644;23.366;2023-05-13T12:56:22;4.73;;;4.13;;
9720;SDS011;4899;42.644;23.366;2023-05-13T12:58:48;4.30;;;3.90;;
9720;SDS011;4899;42.644;23.366;2023-05-13T13:01:18;4.70;;;4.20;;
9720;SDS011;4899;42.644;23.366;2023-05-13T13:03:44;4.33;;;4.03;;
9720;SDS011;4899;42.644;23.366;2023-05-13T13:06:11;5.67;;;4.10;;
9720;SDS011;4899;42.644;23.366;2023-05-13T13:08:38;4.63;;;4.17;;
9720;SDS011;4899;42.644;23.366;2023-05-13T13:11:04;4.10;;;3.80;;
9720;SDS011;4899;42.644;23.366;2023-05-13T13:13:30;4.53;;;4.13;;
9720;SDS011;4899;42.644;23.366;2023-05-13T13:15:56;4.03;;;3.73;;
9720;SDS011;4899;42.644;23.366;2023-05-13T13:18:22;5.60;;;3.97;;
9720;SDS011;4899;42.644;23.366;2023-05-13T13:20:49;4.63;;;4.23;;
9720;SDS011;4899;42.644;23.366;2023-05-13T13:23:15;5.00;;;4.50;;
9720;SDS011;4899;42.644;23.366;2023-05-13T13:25:41;4.93;;;4.47;;
9720;SDS011;4899;42.644;23.366;2023-05-13T13:28:07;5.13;;;4.30;;
9720;SDS011;4899;42.644;23.366;2023-05-13T13:30:33;6.17;;;4.07;;
9720;SDS011;4899;42.644;23.366;2023-05-13T13:32:58;6.97;;;3.70;;
9720;SDS011;4899;42.644;23.366;2023-05-13T13:35:23;4.10;;;3.73;;
9720;SDS011;4899;42.644;23.366;2023-05-13T13:37:49;4.53;;;3.60;;
9720;SDS011;4899;42.644;23.366;2023-05-13T13:40:14;4.05;;;3.60;;
9720;SDS011;4899;42.644;23.366;2023-05-13T13:42:41;3.85;;;3.45;;
9720;SDS011;4899;42.644;23.366;2023-05-13T13:45:06;3.45;;;3.15;;
9720;SDS011;4899;42.644;23.366;2023-05-13T13:47:32;5.22;;;4.00;;
9720;SDS011;4899;42.644;23.366;2023-05-13T13:49:59;5.05;;;3.40;;
9720;SDS011;4899;42.644;23.366;2023-05-13T13:52:24;4.47;;;3.05;;
9720;SDS011;4899;42.644;23.366;2023-05-13T13:54:52;3.10;;;2.80;;
9720;SDS011;4899;42.644;23.366;2023-05-13T13:57:18;4.55;;;3.50;;
9720;SDS011;4899;42.644;23.366;2023-05-13T13:59:43;3.30;;;3.00;;
9720;SDS011;4899;42.644;23.366;2023-05-13T14:02:09;2.92;;;2.63;;
9720;SDS011;4899;42.644;23.366;2023-05-13T14:04:34;5.22;;;2.95;;
9720;SDS011;4899;42.644;23.366;2023-05-13T14:07:00;5.05;;;3.13;;
9720;SDS011;4899;42.644;23.366;2023-05-13T14:09:25;3.20;;;3.00;;
9720;SDS011;4899;42.644;23.366;2023-05-13T14:11:51;4.00;;;3.20;;
9720;SDS011;4899;42.644;23.366;2023-05-13T14:14:16;3.10;;;2.90;;
9720;SDS011;4899;42.644;23.366;2023-05-13T14:16:43;6.13;;;3.40;;
9720;SDS011;4899;42.644;23.366;2023-05-13T14:19:09;3.50;;;3.20;;
9720;SDS011;4899;42.644;23.366;2023-05-13T14:21:35;3.97;;;3.50;;
9720;SDS011;4899;42.644;23.366;2023-05-13T14:24:01;3.10;;;2.90;;
9720;SDS011;4899;42.644;23.366;2023-05-13T14:26:26;6.00;;;2.97;;
9720;SDS011;4899;42.644;23.366;2023-05-13T14:28:52;2.93;;;2.73;;
9720;SDS011;4899;42.644;23.366;2023-05-13T14:31:18;2.93;;;2.60;;
9720;SDS011;4899;42.644;23.366;2023-05-13T14:33:43;3.17;;;2.90;;
9720;SDS011;4899;42.644;23.366;2023-05-13T14:36:08;3.47;;;3.10;;
9720;SDS011;4899;42.644;23.366;2023-05-13T14:38:35;6.13;;;2.87;;
9720;SDS011;4899;42.644;23.366;2023-05-13T14:41:02;5.23;;;2.77;;
9720;SDS011;4899;42.644;23.366;2023-05-13T14:43:28;3.63;;;3.33;;
9720;SDS011;4899;42.644;23.366;2023-05-13T14:45:53;4.47;;;3.30;;
9720;SDS011;4899;42.644;23.366;2023-05-13T14:48:18;3.63;;;3.20;;
9720;SDS011;4899;42.644;23.366;2023-05-13T14:50:44;3.63;;;3.33;;
9720;SDS011;4899;42.644;23.366;2023-05-13T14:53:10;3.53;;;3.23;;
9720;SDS011;4899;42.644;23.366;2023-05-13T14:55:37;4.50;;;4.00;;
9720;SDS011;4899;42.644;23.366;2023-05-13T14:58:03;4.97;;;3.57;;
9720;SDS011;4899;42.644;23.366;2023-05-13T15:00:29;3.67;;;3.37;;
9720;SDS011;4899;42.644;23.366;2023-05-13T15:02:55;3.90;;;3.60;;
9720;SDS011;4899;42.644;23.366;2023-05-13T15:05:22;4.63;;;3.30;;
9720;SDS011;4899;42.644;23.366;2023-05-13T15:07:50;11.27;;;10.20;;
9720;SDS011;4899;42.644;23.366;2023-05-13T15:10:15;4.47;;;4.10;;
9720;SDS011;4899;42.644;23.366;2023-05-13T15:12:41;4.43;;;3.60;;
9720;SDS011;4899;42.644;23.366;2023-05-13T15:15:06;3.47;;;3.07;;
9720;SDS011;4899;42.644;23.366;2023-05-13T15:17:32;5.40;;;3.43;;
9720;SDS011;4899;42.644;23.366;2023-05-13T15:19:58;3.70;;;3.20;;
9720;SDS011;4899;42.644;23.366;2023-05-13T15:22:23;3.13;;;2.93;;
9720;SDS011;4899;42.644;23.366;2023-05-13T15:24:49;3.00;;;2.80;;
9720;SDS011;4899;42.644;23.366;2023-05-13T15:27:14;4.57;;;2.97;;
9720;SDS011;4899;42.644;23.366;2023-05-13T15:29:41;4.37;;;3.13;;
9720;SDS011;4899;42.644;23.366;2023-05-13T15:32:06;3.33;;;2.80;;